createdAt,value
2022-11-13T00:01:18.082Z,9.49
2022-11-13T00:03:46.542Z,9.40
2022-11-13T00:06:15.771Z,9.23
2022-11-13T00:08:43.927Z,9.16
2022-11-13T00:11:14.977Z,9.13
2022-11-13T00:13:44.348Z,9.01
2022-11-13T00:16:13.967Z,8.85
2022-11-13T00:18:42.001Z,8.92
2022-11-13T00:21:12.754Z,8.93
2022-11-13T00:23:43.073Z,9.13
2022-11-13T00:26:14.200Z,9.22
2022-11-13T00:28:42.321Z,9.23
2022-11-13T00:31:13.117Z,9.29
2022-11-13T00:36:30.018Z,9.22
2022-11-13T00:38:58.882Z,9.23
2022-11-13T00:41:29.700Z,9.18
2022-11-13T00:43:57.594Z,9.24
2022-11-13T00:46:27.090Z,9.30
2022-11-13T00:48:54.964Z,9.26
2022-11-13T00:51:22.945Z,9.02
2022-11-13T00:53:50.914Z,9.03
2022-11-13T00:56:19.109Z,9.10
2022-11-13T00:58:47.114Z,9.15
2022-11-13T01:01:17.646Z,9.16
2022-11-13T01:03:47.285Z,9.19
2022-11-13T01:06:18.018Z,9.29
2022-11-13T01:08:46.367Z,9.32
2022-11-13T01:11:16.813Z,9.27
2022-11-13T01:13:46.826Z,9.30
2022-11-13T01:16:16.654Z,9.14
2022-11-13T01:18:46.820Z,8.99
2022-11-13T01:21:16.865Z,8.83
2022-11-13T01:23:44.994Z,8.71
2022-11-13T01:26:15.709Z,8.68
2022-11-13T01:28:45.061Z,8.69
2022-11-13T01:31:16.749Z,8.73
2022-11-13T01:33:46.574Z,8.62
2022-11-13T01:36:17.948Z,8.50
2022-11-13T01:38:46.375Z,8.53
2022-11-13T01:41:23.139Z,8.46
2022-11-13T01:43:52.859Z,8.30
2022-11-13T01:46:25.864Z,8.55
2022-11-13T01:49:02.871Z,8.56
2022-11-13T01:51:34.743Z,8.72
2022-11-13T01:54:05.996Z,8.77
2022-11-13T01:56:34.090Z,8.78
2022-11-13T01:59:10.499Z,8.74
2022-11-13T02:01:38.866Z,8.73
2022-11-13T02:04:08.361Z,8.71
2022-11-13T02:06:42.025Z,8.78
2022-11-13T02:09:11.375Z,8.75
2022-11-13T02:11:42.189Z,8.77
2022-11-13T02:14:10.845Z,8.79
2022-11-13T02:16:41.327Z,8.87
2022-11-13T02:19:19.241Z,8.87
2022-11-13T02:21:55.948Z,8.62
2022-11-13T02:24:32.497Z,8.51
2022-11-13T02:27:04.249Z,8.25
2022-11-13T02:29:32.457Z,8.14
2022-11-13T02:32:00.546Z,7.98
2022-11-13T02:34:28.493Z,8.11
2022-11-13T02:36:56.581Z,8.26
2022-11-13T02:39:25.881Z,8.30
2022-11-13T02:41:54.717Z,8.05
2022-11-13T02:44:22.897Z,8.20
2022-11-13T02:46:51.058Z,8.31
2022-11-13T02:49:19.034Z,8.44
2022-11-13T02:51:47.193Z,8.47
2022-11-13T02:54:17.080Z,8.58
2022-11-13T02:56:46.762Z,8.58
2022-11-13T02:59:14.730Z,8.62
2022-11-13T03:01:42.793Z,8.61
2022-11-13T03:04:11.641Z,8.40
2022-11-13T03:06:39.641Z,8.13
2022-11-13T03:09:07.589Z,8.21
2022-11-13T03:11:35.505Z,8.23
2022-11-13T03:14:05.010Z,7.83
2022-11-13T03:16:33.133Z,7.79
2022-11-13T03:19:01.316Z,7.98
2022-11-13T03:21:29.425Z,8.14
2022-11-13T03:23:57.818Z,8.28
2022-11-13T03:26:27.979Z,8.44
2022-11-13T03:28:56.729Z,8.48
2022-11-13T03:31:26.440Z,8.57
2022-11-13T03:33:54.882Z,8.53
2022-11-13T03:36:22.792Z,8.53
2022-11-13T03:38:51.496Z,8.68
2022-11-13T03:41:19.676Z,8.71
2022-11-13T03:43:47.557Z,8.64
2022-11-13T03:46:15.479Z,8.54
2022-11-13T03:48:44.927Z,8.46
2022-11-13T03:51:12.879Z,8.48
2022-11-13T03:53:40.822Z,8.50
2022-11-13T03:56:11.801Z,8.48
2022-11-13T03:58:40.381Z,8.30
2022-11-13T04:01:08.651Z,8.28
2022-11-13T04:03:36.849Z,8.16
2022-11-13T04:06:06.497Z,8.23
2022-11-13T04:08:34.588Z,8.18
2022-11-13T04:11:08.268Z,8.19
2022-11-13T04:13:36.361Z,8.27
2022-11-13T04:16:05.143Z,8.25
2022-11-13T04:18:33.098Z,8.35
2022-11-13T04:21:01.406Z,8.44
2022-11-13T04:23:30.882Z,8.45
2022-11-13T04:25:59.085Z,8.48
2022-11-13T04:28:29.981Z,8.38
2022-11-13T04:30:58.386Z,8.26
2022-11-13T04:33:26.291Z,7.96
2022-11-13T04:35:54.358Z,7.89
2022-11-13T04:38:22.665Z,7.80
2022-11-13T04:41:12.507Z,7.64
2022-11-13T04:43:39.428Z,7.56
2022-11-13T04:46:07.475Z,7.39
2022-11-13T04:48:35.473Z,7.59
2022-11-13T04:51:03.398Z,7.76
2022-11-13T04:53:31.645Z,7.98
2022-11-13T04:56:00.955Z,8.06
2022-11-13T04:58:29.274Z,8.05
2022-11-13T05:00:57.675Z,7.92
2022-11-13T05:03:25.809Z,7.83
2022-11-13T05:05:53.866Z,7.92
2022-11-13T05:08:22.032Z,8.00
2022-11-13T05:10:49.928Z,8.06
2022-11-13T05:13:19.666Z,8.03
2022-11-13T05:15:47.721Z,7.86
2022-11-13T05:18:15.647Z,7.73
2022-11-13T05:20:43.617Z,7.72
2022-11-13T05:23:11.710Z,7.75
2022-11-13T05:25:39.631Z,7.82
2022-11-13T05:28:07.695Z,7.82
2022-11-13T05:30:37.041Z,7.72
2022-11-13T05:33:05.428Z,7.74
2022-11-13T05:35:33.598Z,7.84
2022-11-13T05:38:01.966Z,7.90
2022-11-13T05:40:31.063Z,7.86
2022-11-13T05:42:59.080Z,7.79
2022-11-13T05:45:27.017Z,7.84
2022-11-13T05:47:56.591Z,7.70
2022-11-13T05:50:24.644Z,7.72
2022-11-13T05:52:52.858Z,7.75
2022-11-13T05:55:23.264Z,7.79
2022-11-13T05:57:51.673Z,7.79
2022-11-13T06:00:20.248Z,7.61
2022-11-13T06:02:48.303Z,7.50
2022-11-13T06:05:17.644Z,7.50
2022-11-13T06:07:45.623Z,7.44
2022-11-13T06:10:13.760Z,7.54
2022-11-13T06:12:42.347Z,7.66
2022-11-13T06:15:11.416Z,7.73
2022-11-13T06:17:39.364Z,7.70
2022-11-13T06:20:08.201Z,7.62
2022-11-13T06:22:37.537Z,7.51
2022-11-13T06:25:06.309Z,7.53
2022-11-13T06:27:34.363Z,7.31
2022-11-13T06:30:02.393Z,7.36
2022-11-13T06:32:30.314Z,7.43
2022-11-13T06:34:58.637Z,7.54
2022-11-13T06:37:27.557Z,7.56
2022-11-13T06:39:58.986Z,7.62
2022-11-13T06:42:26.919Z,7.57
2022-11-13T06:44:57.836Z,7.58
2022-11-13T06:47:25.823Z,7.66
2022-11-13T06:49:54.004Z,7.73
2022-11-13T06:52:21.939Z,7.84
2022-11-13T06:54:49.894Z,7.89
2022-11-13T06:57:19.627Z,7.89
2022-11-13T06:59:47.742Z,7.79
2022-11-13T07:02:15.711Z,7.60
2022-11-13T07:04:43.882Z,7.59
2022-11-13T07:07:12.095Z,7.79
2022-11-13T07:09:40.017Z,7.84
2022-11-13T07:12:08.265Z,7.92
2022-11-13T07:14:37.520Z,8.06
2022-11-13T07:17:09.606Z,8.18
2022-11-13T07:19:38.270Z,8.33
2022-11-13T07:22:06.360Z,8.48
2022-11-13T07:24:34.324Z,8.58
2022-11-13T07:27:04.314Z,8.72
2022-11-13T07:29:32.219Z,8.73
2022-11-13T07:32:01.519Z,8.69
2022-11-13T07:34:29.421Z,8.68
2022-11-13T07:36:57.446Z,8.73
2022-11-13T07:39:25.528Z,8.33
2022-11-13T07:41:53.623Z,8.28
2022-11-13T07:44:48.125Z,8.30
2022-11-13T07:47:10.949Z,8.47
2022-11-13T07:49:38.980Z,8.61
2022-11-13T07:52:06.960Z,8.61
2022-11-13T07:54:34.930Z,8.78
2022-11-13T07:57:02.943Z,9.01
2022-11-13T07:59:33.321Z,9.17
2022-11-13T08:02:01.496Z,9.22
2022-11-13T08:04:33.682Z,9.37
2022-11-13T08:07:01.679Z,9.51
2022-11-13T08:09:32.788Z,9.66
2022-11-13T08:12:00.741Z,9.82
2022-11-13T08:14:28.864Z,9.86
2022-11-13T08:16:56.783Z,9.81
2022-11-13T08:19:24.774Z,9.94
2022-11-13T08:21:54.124Z,9.98
2022-11-13T08:24:22.152Z,9.95
2022-11-13T08:26:50.200Z,9.68
2022-11-13T08:29:18.215Z,9.97
2022-11-13T08:31:46.379Z,10.23
2022-11-13T08:34:14.870Z,10.48
2022-11-13T08:36:42.899Z,10.63
2022-11-13T08:39:12.358Z,10.81
2022-11-13T08:41:40.492Z,10.94
2022-11-13T08:44:08.604Z,11.05
2022-11-13T08:46:36.571Z,11.11
2022-11-13T08:49:04.890Z,11.10
2022-11-13T08:51:32.944Z,10.95
2022-11-13T08:54:00.926Z,10.85
2022-11-13T08:56:30.530Z,11.19
2022-11-13T08:58:58.670Z,11.52
2022-11-13T09:01:26.658Z,11.78
2022-11-13T09:03:54.700Z,11.85
2022-11-13T09:06:22.996Z,11.86
2022-11-13T09:08:51.071Z,11.95
2022-11-13T09:11:19.248Z,12.07
2022-11-13T09:13:52.936Z,12.12
2022-11-13T09:16:21.314Z,11.93
2022-11-13T09:18:51.384Z,12.12
2022-11-13T09:21:19.648Z,12.41
2022-11-13T09:23:47.934Z,12.65
2022-11-13T09:26:16.033Z,12.74
2022-11-13T09:28:44.192Z,12.94
2022-11-13T09:31:13.891Z,13.10
2022-11-13T09:33:42.038Z,13.25
2022-11-13T09:36:14.311Z,13.42
2022-11-13T09:38:42.658Z,13.58
2022-11-13T09:41:12.968Z,13.66
2022-11-13T09:43:46.180Z,13.83
2022-11-13T09:46:20.043Z,13.72
2022-11-13T09:48:52.223Z,13.81
2022-11-13T09:51:25.819Z,13.89
2022-11-13T09:53:54.292Z,14.00
2022-11-13T09:56:33.242Z,14.11
2022-11-13T09:59:16.739Z,14.09
2022-11-13T10:01:56.388Z,14.30
2022-11-13T10:04:34.690Z,14.27
2022-11-13T10:07:15.542Z,14.41
2022-11-13T10:09:59.421Z,14.57
2022-11-13T10:12:29.833Z,14.67
2022-11-13T10:15:03.403Z,14.81
2022-11-13T10:17:38.608Z,14.84
2022-11-13T10:20:13.582Z,15.00
2022-11-13T10:22:48.485Z,15.06
2022-11-13T10:25:18.672Z,15.25
2022-11-13T10:27:51.837Z,15.27
2022-11-13T10:30:20.779Z,15.44
2022-11-13T10:32:50.779Z,15.59
2022-11-13T10:35:42.084Z,15.67
2022-11-13T10:38:19.366Z,15.75
2022-11-13T10:40:47.400Z,15.83
2022-11-13T10:43:20.743Z,15.89
2022-11-13T10:45:57.593Z,16.00
2022-11-13T10:48:29.589Z,15.99
2022-11-13T10:51:00.121Z,16.05
2022-11-13T10:53:38.473Z,16.06
2022-11-13T10:56:15.428Z,16.21
2022-11-13T10:58:43.629Z,16.35
2022-11-13T11:01:23.139Z,16.49
2022-11-13T11:03:52.913Z,16.57
2022-11-13T11:06:21.060Z,16.71
2022-11-13T11:08:49.320Z,16.82
2022-11-13T11:11:36.268Z,16.86
2022-11-13T11:14:21.006Z,16.94
2022-11-13T11:16:52.752Z,17.11
2022-11-13T11:19:26.791Z,17.30
2022-11-13T11:22:04.329Z,17.46
2022-11-13T11:24:36.906Z,17.48
2022-11-13T11:27:11.793Z,17.50
2022-11-13T11:29:44.908Z,17.50
2022-11-13T11:32:18.911Z,17.57
2022-11-13T11:34:58.949Z,17.65
2022-11-13T11:37:32.623Z,17.71
2022-11-13T11:40:04.724Z,17.75
2022-11-13T11:42:40.513Z,17.78
2022-11-13T11:45:15.490Z,17.88
2022-11-13T11:47:45.079Z,17.95
2022-11-13T11:50:18.429Z,18.08
2022-11-13T11:52:58.305Z,18.06
2022-11-13T11:55:48.493Z,18.19
2022-11-13T11:58:29.816Z,18.24
2022-11-13T12:01:06.864Z,18.21
2022-11-13T12:04:01.178Z,18.29
2022-11-13T12:06:40.600Z,18.33
2022-11-13T12:09:19.996Z,18.45
2022-11-13T12:11:53.666Z,18.48
2022-11-13T12:14:32.839Z,18.56
2022-11-13T12:17:17.592Z,18.63
2022-11-13T12:19:56.629Z,18.63
2022-11-13T12:22:33.515Z,18.74
2022-11-13T12:25:14.667Z,18.75
2022-11-13T12:27:48.371Z,18.81
2022-11-13T12:30:20.339Z,18.88
2022-11-13T12:33:04.132Z,19.05
2022-11-13T12:35:32.124Z,19.06
2022-11-13T12:38:09.795Z,19.03
2022-11-13T12:40:44.627Z,19.09
2022-11-13T12:43:44.506Z,19.18
2022-11-13T12:46:13.873Z,19.30
2022-11-13T12:48:43.157Z,19.41
2022-11-13T12:51:13.433Z,19.42
2022-11-13T12:53:49.456Z,19.53
2022-11-13T12:56:31.018Z,19.60
2022-11-13T12:59:29.320Z,19.63
2022-11-13T13:01:57.613Z,19.64
2022-11-13T13:04:45.661Z,19.74
2022-11-13T13:07:27.115Z,19.84
2022-11-13T13:10:12.231Z,20.01
2022-11-13T13:12:50.654Z,20.02
2022-11-13T13:15:33.590Z,20.19
2022-11-13T13:18:12.427Z,20.18
2022-11-13T13:20:41.822Z,20.17
2022-11-13T13:23:13.159Z,20.29
2022-11-13T13:25:42.480Z,20.48
2022-11-13T13:28:21.622Z,20.53
2022-11-13T13:30:58.408Z,20.57
2022-11-13T13:33:34.914Z,20.52
2022-11-13T13:36:14.009Z,20.59
2022-11-13T13:38:52.319Z,20.59
2022-11-13T13:41:33.088Z,20.69
2022-11-13T13:44:27.535Z,20.78
2022-11-13T13:46:57.802Z,20.83
2022-11-13T13:49:28.393Z,20.88
2022-11-13T13:51:58.585Z,21.01
2022-11-13T13:54:31.199Z,20.93
2022-11-13T13:57:00.844Z,20.93
2022-11-13T13:59:36.501Z,21.04
2022-11-13T14:02:05.937Z,21.12
2022-11-13T14:04:36.281Z,21.14
2022-11-13T14:07:04.750Z,21.16
2022-11-13T14:09:32.761Z,21.03
2022-11-13T14:12:09.238Z,20.85
2022-11-13T14:14:40.661Z,20.86
2022-11-13T14:17:11.291Z,20.86
2022-11-13T14:19:40.039Z,20.97
2022-11-13T14:22:13.166Z,21.09
2022-11-13T14:24:49.177Z,20.96
2022-11-13T14:27:21.728Z,20.84
2022-11-13T14:29:52.375Z,20.80
2022-11-13T14:32:22.864Z,20.83
2022-11-13T14:34:52.904Z,20.82
2022-11-13T14:37:27.160Z,20.68
2022-11-13T14:39:56.976Z,20.62
2022-11-13T14:42:29.659Z,20.72
2022-11-13T14:45:13.566Z,20.74
2022-11-13T14:47:41.612Z,20.68
2022-11-13T14:50:22.126Z,20.64
2022-11-13T14:53:02.298Z,20.61
2022-11-13T14:55:32.631Z,20.57
2022-11-13T14:58:02.104Z,20.37
2022-11-13T15:00:35.010Z,20.36
2022-11-13T15:03:04.657Z,20.37
2022-11-13T15:05:33.040Z,20.35
2022-11-13T15:08:01.364Z,20.41
2022-11-13T15:10:30.877Z,20.36
2022-11-13T15:12:59.010Z,20.18
2022-11-13T15:15:30.262Z,20.15
2022-11-13T15:17:58.384Z,19.96
2022-11-13T15:20:28.184Z,20.12
2022-11-13T15:22:56.903Z,20.17
2022-11-13T15:25:25.881Z,20.12
2022-11-13T15:27:54.361Z,20.05
2022-11-13T15:30:22.316Z,19.98
2022-11-13T15:32:54.118Z,19.83
2022-11-13T15:35:22.523Z,19.85
2022-11-13T15:37:50.485Z,19.84
2022-11-13T15:40:18.891Z,19.77
2022-11-13T15:42:46.902Z,19.57
2022-11-13T15:45:17.159Z,19.38
2022-11-13T15:47:45.568Z,19.21
2022-11-13T15:50:16.052Z,19.03
2022-11-13T15:52:47.966Z,18.96
2022-11-13T15:55:27.587Z,18.74
2022-11-13T15:57:56.624Z,18.51
2022-11-13T16:00:26.590Z,18.41
2022-11-13T16:02:56.045Z,18.25
2022-11-13T16:05:29.089Z,18.09
2022-11-13T16:07:57.827Z,17.96
2022-11-13T16:10:25.939Z,17.76
2022-11-13T16:12:54.341Z,17.56
2022-11-13T16:15:22.394Z,17.49
2022-11-13T16:17:53.569Z,17.26
2022-11-13T16:20:21.869Z,17.10
2022-11-13T16:22:51.315Z,17.08
2022-11-13T16:25:20.983Z,16.71
2022-11-13T16:27:49.066Z,16.58
2022-11-13T16:30:20.205Z,16.49
2022-11-13T16:32:48.340Z,16.44
2022-11-13T16:35:17.705Z,16.39
2022-11-13T16:37:46.374Z,16.30
2022-11-13T16:40:21.334Z,16.11
2022-11-13T16:42:49.479Z,15.91
2022-11-13T16:45:18.497Z,15.83
2022-11-13T16:47:47.119Z,15.70
2022-11-13T16:50:17.550Z,15.60
2022-11-13T16:52:45.704Z,15.40
2022-11-13T16:55:13.664Z,15.33
2022-11-13T16:57:42.937Z,15.20
2022-11-13T17:00:16.251Z,15.11
2022-11-13T17:02:44.824Z,14.94
2022-11-13T17:05:14.085Z,14.90
2022-11-13T17:07:42.490Z,14.93
2022-11-13T17:13:02.975Z,14.81
2022-11-13T17:15:32.716Z,14.82
2022-11-13T17:18:00.711Z,14.78
2022-11-13T17:20:29.420Z,14.54
2022-11-13T17:22:57.548Z,14.29
2022-11-13T17:25:28.031Z,14.14
2022-11-13T17:27:56.301Z,14.11
2022-11-13T17:30:25.785Z,14.15
2022-11-13T17:32:53.701Z,14.17
2022-11-13T17:35:24.411Z,14.13
2022-11-13T17:37:52.322Z,14.28
2022-11-13T17:40:20.968Z,14.29
2022-11-13T17:42:49.567Z,14.28
2022-11-13T17:45:17.754Z,14.22
2022-11-13T17:47:47.102Z,14.05
2022-11-13T17:50:15.566Z,13.91
2022-11-13T17:52:43.657Z,13.90
2022-11-13T17:55:13.180Z,13.83
2022-11-13T17:57:41.168Z,13.62
2022-11-13T18:00:10.650Z,13.55
2022-11-13T18:02:39.657Z,13.54
2022-11-13T18:05:10.390Z,13.58
2022-11-13T18:07:40.125Z,13.55
2022-11-13T18:10:10.852Z,13.71
2022-11-13T18:12:38.917Z,13.70
2022-11-13T18:15:07.552Z,13.56
2022-11-13T18:17:35.726Z,13.62
2022-11-13T18:20:03.776Z,13.63
2022-11-13T18:22:33.058Z,13.56
2022-11-13T18:25:03.496Z,13.60
2022-11-13T18:27:35.046Z,13.44
2022-11-13T18:30:02.993Z,13.25
2022-11-13T18:32:31.520Z,13.10
2022-11-13T18:34:59.683Z,13.10
2022-11-13T18:37:27.766Z,13.15
2022-11-13T18:39:58.404Z,13.04
2022-11-13T18:42:26.689Z,12.76
2022-11-13T18:44:54.884Z,12.78
2022-11-13T18:47:22.882Z,12.80
2022-11-13T18:49:54.890Z,12.75
2022-11-13T18:52:22.950Z,12.64
2022-11-13T18:54:51.036Z,12.73
2022-11-13T18:57:23.485Z,12.76
2022-11-13T18:59:51.492Z,12.83
2022-11-13T19:02:19.680Z,12.67
2022-11-13T19:04:47.798Z,12.49
2022-11-13T19:07:15.869Z,12.53
2022-11-13T19:09:46.157Z,12.65
2022-11-13T19:12:14.071Z,12.71
2022-11-13T19:14:43.517Z,12.61
2022-11-13T19:17:11.793Z,12.69
2022-11-13T19:19:41.850Z,12.67
2022-11-13T19:22:09.819Z,12.74
2022-11-13T19:24:37.912Z,12.71
2022-11-13T19:27:06.044Z,12.55
2022-11-13T19:29:34.144Z,12.56
2022-11-13T19:32:03.720Z,12.60
2022-11-13T19:34:31.753Z,12.35
2022-11-13T19:36:59.911Z,12.18
2022-11-13T19:39:28.088Z,12.23
2022-11-13T19:41:56.086Z,12.07
2022-11-13T19:44:24.095Z,11.76
2022-11-13T19:46:53.485Z,11.69
2022-11-13T19:49:22.882Z,11.77
2022-11-13T19:51:51.081Z,11.68
2022-11-13T19:54:19.445Z,11.73
2022-11-13T19:56:47.820Z,11.86
2022-11-13T19:59:15.986Z,11.80
2022-11-13T20:01:44.042Z,11.84
2022-11-13T20:04:13.793Z,11.54
2022-11-13T20:06:46.652Z,11.35
2022-11-13T20:09:15.156Z,11.23
2022-11-13T20:11:45.263Z,11.16
2022-11-13T20:14:14.056Z,11.25
2022-11-13T20:16:42.396Z,11.20
2022-11-13T20:19:10.953Z,11.35
2022-11-13T20:21:40.390Z,11.44
2022-11-13T20:24:11.389Z,11.62
2022-11-13T20:26:39.699Z,11.73
2022-11-13T20:29:09.205Z,11.71
2022-11-13T20:31:37.904Z,11.63
2022-11-13T20:34:06.368Z,11.45
2022-11-13T20:36:34.480Z,11.15
2022-11-13T20:39:08.130Z,11.28
2022-11-13T20:41:40.288Z,11.46
2022-11-13T20:44:09.935Z,11.63
2022-11-13T20:46:38.138Z,11.75
2022-11-13T20:49:06.650Z,11.64
2022-11-13T20:51:35.101Z,11.59
2022-11-13T20:54:03.956Z,11.59
2022-11-13T20:56:32.573Z,11.49
2022-11-13T20:59:04.620Z,11.52
2022-11-13T21:01:36.825Z,11.37
2022-11-13T21:04:05.173Z,11.14
2022-11-13T21:06:33.227Z,11.25
2022-11-13T21:09:01.840Z,11.28
2022-11-13T21:11:30.443Z,11.40
2022-11-13T21:13:59.463Z,11.17
2022-11-13T21:16:29.610Z,11.28
2022-11-13T21:18:59.300Z,11.19
2022-11-13T21:21:28.988Z,11.16
2022-11-13T21:23:58.215Z,11.24
2022-11-13T21:26:28.335Z,11.20
2022-11-13T21:28:56.964Z,11.30
2022-11-13T21:31:25.344Z,11.09
2022-11-13T21:33:55.090Z,11.10
2022-11-13T21:36:25.616Z,11.05
2022-11-13T21:38:54.893Z,10.95
2022-11-13T21:41:24.933Z,11.00
2022-11-13T21:43:57.145Z,10.78
2022-11-13T21:46:26.657Z,10.85
2022-11-13T21:48:59.904Z,10.73
2022-11-13T21:51:28.458Z,10.95
2022-11-13T21:53:57.153Z,10.91
2022-11-13T21:56:25.960Z,10.48
2022-11-13T21:58:54.188Z,10.56
2022-11-13T22:01:23.848Z,10.60
2022-11-13T22:03:52.238Z,10.72
2022-11-13T22:06:23.938Z,10.78
2022-11-13T22:08:56.835Z,10.88
2022-11-13T22:11:25.377Z,10.49
2022-11-13T22:13:53.707Z,10.22
2022-11-13T22:16:22.294Z,10.18
2022-11-13T22:18:54.897Z,10.44
2022-11-13T22:21:26.017Z,10.45
2022-11-13T22:23:54.008Z,10.53
2022-11-13T22:26:23.923Z,10.48
2022-11-13T22:28:52.914Z,10.63
2022-11-13T22:31:22.782Z,10.68
2022-11-13T22:33:54.816Z,10.70
2022-11-13T22:36:26.877Z,10.59
2022-11-13T22:38:55.415Z,10.35
2022-11-13T22:41:28.461Z,10.37
2022-11-13T22:44:00.729Z,10.37
2022-11-13T22:46:31.117Z,10.16
2022-11-13T22:49:01.691Z,10.10
2022-11-13T22:51:35.067Z,10.07
2022-11-13T22:54:04.839Z,10.06
2022-11-13T22:56:34.610Z,10.18
2022-11-13T22:59:04.367Z,10.25
2022-11-13T23:01:34.459Z,10.20
2022-11-13T23:04:05.387Z,10.33
2022-11-13T23:06:36.261Z,10.31
2022-11-13T23:09:05.915Z,10.41
2022-11-13T23:11:37.962Z,10.21
2022-11-13T23:14:08.105Z,10.22
2022-11-13T23:16:36.153Z,10.01
2022-11-13T23:19:04.491Z,9.87
2022-11-13T23:21:34.154Z,9.93
2022-11-13T23:24:02.578Z,9.93
2022-11-13T23:26:30.803Z,10.09
2022-11-13T23:28:58.751Z,10.26
2022-11-13T23:31:26.743Z,10.37
2022-11-13T23:33:54.659Z,10.41
2022-11-13T23:36:22.721Z,10.45
2022-11-13T23:38:52.253Z,10.41
2022-11-13T23:41:20.185Z,10.25
2022-11-13T23:44:07.565Z,10.14
2022-11-13T23:46:36.268Z,10.07
2022-11-13T23:49:04.174Z,10.00
2022-11-13T23:51:32.282Z,9.96
2022-11-13T23:54:01.755Z,9.76
2022-11-13T23:56:29.810Z,9.85
2022-11-13T23:58:57.943Z,9.83
